Startpagina
METAR-TAF:

METAR-TAF

Vliegvelden :

Lynden Pindling International Airport

Nassau, Bahama's

breedte: 25-03N, lengte: 077-28W, hoogte: 3 m

Actueel weer

Dit bericht is 43 minuten geleden gemaakt, om 21:00 UTC
Wind 10 kt uit het zuiden
Temperatuur 31°C
Vochtigheid 63%
Druk 1019 hPa
Zicht 10 km of meer
Verspreide wolken op 1500 ft, Cumulonimbus.
Gebroken wolken op 2000 ft, Stapelwolken.

METAR: MYNN 162100Z 17010KT 9999 SCT015CB BKN020TCU 31/23 A3008 RMK TCU S CB S-NE

Tijdstip: 17:43 (21:43 UTC)

Verwachting

Dit bericht is 11 uur en het 43 minuten geleden gemaakt, om 10:00 UTC
Verwachting geldig van 16 om 12 UTC tot 17 om 12 UTC
Wind 2 kt uit variabele richting
Zicht 10 km of meer
Weinig wolken op 2000 ft
Wijzigt naar
van 16 om 16 UTC tot 16 om 18 UTC
Wind 10 kt uit het zuidzuidoosten

TAF: MYNN 161000Z 1612/1712 VRB02KT 9999 FEW020 BECMG 1616/1618 15010KT

Waarnemingen en weersverwachtingen van meer dan 4000 vliegvelden (METAR en TAF).

De beschikbare stations zijn de gele en rode punten op de kaart.

Ga met uw muis naar het station om de naam te zien.

Klik dan om waarnemingen en weersverwachtingen te zien.

kaart wijzigen: klik op de groene knoppen met een zwart kruis om in te zoomen, op de groene knop met een streepje om uit te zoomen of op de groene pijlen voor aangrenzende kaarten.


METAR-TAF: